createdAt,value
2018-11-20T00:03:07.901Z,101367.00
2018-11-20T00:04:45.200Z,101375.86
2018-11-20T00:06:18.863Z,101368.20
2018-11-20T00:07:49.462Z,101360.23
2018-11-20T00:09:19.577Z,101356.36
2018-11-20T00:11:05.210Z,101367.42
2018-11-20T00:12:42.192Z,101357.24
2018-11-20T00:14:26.934Z,101346.26
2018-11-20T00:15:57.807Z,101359.81
2018-11-20T00:17:34.991Z,101357.67
2018-11-20T00:19:15.733Z,101342.45
2018-11-20T00:20:58.346Z,101345.78
2018-11-20T00:22:44.520Z,101337.32
2018-11-20T00:24:21.430Z,101341.59
2018-11-20T00:26:06.142Z,101336.03
2018-11-20T00:27:43.267Z,101344.89
2018-11-20T00:29:20.388Z,101347.03
2018-11-20T00:30:57.469Z,101338.52
2018-11-20T00:32:34.444Z,101344.91
2018-11-20T00:34:19.532Z,101338.55
2018-11-20T00:35:56.954Z,101334.28
2018-11-20T00:37:42.104Z,101337.31
2018-11-20T00:39:21.638Z,101336.89
2018-11-20T00:40:57.125Z,101339.42
2018-11-20T00:42:34.640Z,101344.91
2018-11-20T00:44:14.654Z,101331.41
2018-11-20T00:45:59.532Z,101338.63
2018-11-20T00:47:42.591Z,101333.13
2018-11-20T00:49:27.159Z,101328.89
2018-11-20T00:51:09.731Z,101313.64
2018-11-20T00:52:46.780Z,101317.88
2018-11-20T00:54:26.965Z,101291.63
2018-11-20T00:56:20.096Z,101321.65
2018-11-20T00:57:50.029Z,101314.92
2018-11-20T00:59:27.158Z,101317.46
2018-11-20T01:00:54.879Z,101313.66
2018-11-20T01:02:32.107Z,101307.75
2018-11-20T01:04:16.706Z,101319.61
2018-11-20T01:05:47.779Z,101309.91
2018-11-20T01:07:29.958Z,101316.72
2018-11-20T01:09:07.713Z,101315.03
2018-11-20T01:10:52.399Z,101306.98
2018-11-20T01:12:32.686Z,101304.86
2018-11-20T01:14:09.710Z,101292.17
2018-11-20T01:15:55.066Z,101291.78
2018-11-20T01:17:32.444Z,101306.18
2018-11-20T01:20:46.611Z,101294.75
2018-11-20T01:22:24.035Z,101291.83
2018-11-20T01:23:57.059Z,101292.23
2018-11-20T01:25:29.690Z,101295.23
2018-11-20T01:26:58.787Z,101297.71
2018-11-20T01:28:43.326Z,101300.27
2018-11-20T01:30:21.296Z,101288.84
2018-11-20T01:32:06.145Z,101284.63
2018-11-20T01:33:43.134Z,101278.70
2018-11-20T01:35:19.875Z,101275.34
2018-11-20T01:36:56.838Z,101264.34
2018-11-20T01:38:34.959Z,101273.22
2018-11-20T01:40:11.970Z,101261.78
2018-11-20T01:41:57.342Z,101268.96
2018-11-20T01:43:32.283Z,101259.68
2018-11-20T01:47:18.157Z,101236.86
2018-11-20T01:48:55.137Z,101235.19
2018-11-20T01:52:40.614Z,101228.05
2018-11-20T01:54:17.656Z,101226.80
2018-11-20T01:56:02.774Z,101242.84
2018-11-20T01:57:34.885Z,101216.21
2018-11-20T01:59:19.749Z,101219.17
2018-11-20T02:00:56.945Z,101216.19
2018-11-20T02:02:37.243Z,101215.81
2018-11-20T02:04:08.812Z,101197.63
2018-11-20T02:05:39.176Z,101192.12
2018-11-20T02:07:16.637Z,101200.56
2018-11-20T02:08:53.912Z,101197.22
2018-11-20T02:10:38.419Z,101206.94
2018-11-20T02:12:15.013Z,101197.63
2018-11-20T02:14:37.330Z,101205.24
2018-11-20T02:16:14.336Z,101196.33
2018-11-20T02:17:56.044Z,101192.12
2018-11-20T02:19:36.565Z,101192.56
2018-11-20T02:21:13.748Z,101192.56
2018-11-20T02:22:46.856Z,101165.95
2018-11-20T02:24:24.347Z,101184.54
2018-11-20T02:26:08.905Z,101182.41
2018-11-20T02:27:51.709Z,101167.62
2018-11-20T02:31:17.090Z,101163.41
2018-11-20T02:32:57.853Z,101172.27
2018-11-20T02:34:30.277Z,101167.62
2018-11-20T02:36:07.340Z,101148.98
2018-11-20T02:39:37.427Z,101151.97
2018-11-20T02:41:15.531Z,101160.38
2018-11-20T02:44:29.413Z,101145.58
2018-11-20T02:46:08.748Z,101159.09
2018-11-20T02:49:54.745Z,101159.13
2018-11-20T02:51:34.824Z,101152.37
2018-11-20T02:53:12.165Z,101143.91
2018-11-20T02:54:52.741Z,101143.06
2018-11-20T02:56:37.322Z,101146.04
2018-11-20T02:58:08.469Z,101143.06
2018-11-20T03:00:12.264Z,101146.01
2018-11-20T03:01:49.016Z,101146.88
2018-11-20T03:03:26.574Z,101146.42
2018-11-20T03:04:52.816Z,101130.34
2018-11-20T03:06:30.164Z,101135.86
2018-11-20T03:08:14.806Z,101132.90
2018-11-20T03:09:54.438Z,101130.38
2018-11-20T03:11:21.396Z,101134.58
2018-11-20T03:13:00.709Z,101122.73
2018-11-20T03:14:38.008Z,101121.92
2018-11-20T03:16:22.620Z,101124.01
2018-11-20T03:18:01.006Z,101127.41
2018-11-20T03:19:45.688Z,101095.23
2018-11-20T03:21:28.470Z,101110.91
2018-11-20T03:23:02.009Z,101091.07
2018-11-20T03:24:42.394Z,101096.97
2018-11-20T03:26:28.466Z,101097.02
2018-11-20T03:28:00.027Z,101102.93
2018-11-20T03:30:25.294Z,101097.42
2018-11-20T03:32:08.702Z,101087.27
2018-11-20T03:33:45.529Z,101062.28
2018-11-20T03:35:22.556Z,101078.31
2018-11-20T03:37:00.886Z,101082.53
2018-11-20T03:38:38.549Z,101073.19
2018-11-20T03:40:23.040Z,101082.56
2018-11-20T03:42:02.822Z,101087.61
2018-11-20T03:45:24.342Z,101086.36
2018-11-20T03:47:02.000Z,101084.70
2018-11-20T03:48:39.984Z,101085.98
2018-11-20T03:50:16.935Z,101082.59
2018-11-20T03:51:54.229Z,101084.29
2018-11-20T03:53:32.980Z,101085.56
2018-11-20T03:55:09.238Z,101084.75
2018-11-20T03:56:44.926Z,101088.11
2018-11-20T03:58:22.150Z,101080.06
2018-11-20T04:02:02.743Z,101086.38
2018-11-20T04:03:39.776Z,101078.78
2018-11-20T04:05:16.479Z,101069.08
2018-11-20T04:06:56.893Z,101067.39
2018-11-20T04:08:34.204Z,101067.38
2018-11-20T04:10:12.188Z,101064.45
2018-11-20T04:11:53.003Z,101058.93
2018-11-20T04:13:37.986Z,101064.00
2018-11-20T04:15:15.484Z,101043.30
2018-11-20T04:16:55.358Z,101055.55
2018-11-20T04:18:32.546Z,101062.71
2018-11-20T04:20:17.114Z,101046.66
2018-11-20T04:22:00.095Z,101059.73
2018-11-20T04:23:37.311Z,101044.06
2018-11-20T04:25:13.890Z,101036.41
2018-11-20T04:26:58.798Z,101047.41
2018-11-20T04:28:39.042Z,101049.10
2018-11-20T04:31:04.483Z,101059.23
2018-11-20T04:32:39.915Z,101057.13
2018-11-20T04:34:22.819Z,101051.20
2018-11-20T04:35:53.374Z,101042.77
2018-11-20T04:37:30.546Z,101044.41
2018-11-20T04:39:15.336Z,101041.06
2018-11-20T04:40:59.166Z,101044.92
2018-11-20T04:42:44.551Z,101048.27
2018-11-20T04:44:25.204Z,101039.83
2018-11-20T04:46:09.869Z,101049.98
2018-11-20T04:47:39.574Z,101050.44
2018-11-20T04:51:04.940Z,101030.98
2018-11-20T04:52:42.208Z,101039.86
2018-11-20T04:54:19.455Z,101012.38
2018-11-20T04:56:03.943Z,101031.00
2018-11-20T04:57:41.961Z,101028.88
2018-11-20T04:59:26.552Z,101017.05
2018-11-20T05:01:03.511Z,101025.50
2018-11-20T05:02:46.082Z,101018.77
2018-11-20T05:04:16.829Z,101014.55
2018-11-20T05:05:54.010Z,101025.97
2018-11-20T05:07:38.582Z,101023.02
2018-11-20T05:09:15.946Z,101026.37
2018-11-20T05:11:00.885Z,101024.70
2018-11-20T05:12:38.735Z,101024.29
2018-11-20T05:14:23.911Z,101006.52
2018-11-20T05:15:53.679Z,101017.53
2018-11-20T05:17:39.174Z,101015.83
2018-11-20T05:19:16.089Z,101013.70
2018-11-20T05:20:53.580Z,101022.61
2018-11-20T05:22:30.705Z,101009.48
2018-11-20T05:24:08.003Z,101011.20
2018-11-20T05:26:11.777Z,101017.53
2018-11-20T05:27:50.333Z,101001.06
2018-11-20T05:29:34.997Z,101006.92
2018-11-20T05:31:17.856Z,101009.09
2018-11-20T05:32:54.992Z,101018.78
2018-11-20T05:34:32.207Z,101012.03
2018-11-20T05:36:09.631Z,101015.42
2018-11-20T05:37:54.555Z,101014.16
2018-11-20T05:39:23.208Z,101020.51
2018-11-20T05:41:27.214Z,101009.89
2018-11-20T05:43:05.324Z,101024.73
2018-11-20T05:44:42.553Z,101020.06
2018-11-20T05:46:20.070Z,101019.25
2018-11-20T05:47:57.306Z,101013.34
2018-11-20T05:49:34.867Z,101010.34
2018-11-20T05:53:20.804Z,101010.77
2018-11-20T05:54:58.212Z,101012.87
2018-11-20T05:56:31.275Z,101013.75
2018-11-20T05:58:09.264Z,101004.86
2018-11-20T05:59:47.171Z,101015.47
2018-11-20T06:01:24.088Z,101014.62
2018-11-20T06:05:11.121Z,101010.37
2018-11-20T06:06:47.901Z,101009.09
2018-11-20T06:08:33.727Z,101008.23
2018-11-20T06:10:12.237Z,101013.34
2018-11-20T06:11:57.024Z,101020.53
2018-11-20T06:13:40.474Z,101014.61
2018-11-20T06:15:18.231Z,101009.55
2018-11-20T06:16:55.212Z,101023.48
2018-11-20T06:18:33.698Z,100989.63
2018-11-20T06:20:18.619Z,101001.06
2018-11-20T06:21:58.742Z,100998.53
2018-11-20T06:25:44.501Z,101009.10
2018-11-20T06:27:21.750Z,100995.16
2018-11-20T06:29:01.882Z,101006.59
2018-11-20T06:30:41.921Z,101001.92
2018-11-20T06:32:19.260Z,100998.13
2018-11-20T06:34:04.067Z,101004.05
2018-11-20T06:35:41.043Z,100991.36
2018-11-20T06:37:28.895Z,100996.02
2018-11-20T06:39:06.021Z,100993.48
2018-11-20T06:40:50.812Z,100987.14
2018-11-20T06:42:28.045Z,100982.06
2018-11-20T06:44:05.156Z,100976.16
2018-11-20T06:45:42.450Z,100970.20
2018-11-20T06:47:26.116Z,100978.26
2018-11-20T06:49:10.566Z,100970.23
2018-11-20T06:50:47.334Z,100976.98
2018-11-20T06:52:24.444Z,100965.15
2018-11-20T06:53:56.584Z,100967.67
2018-11-20T06:55:34.250Z,100974.02
2018-11-20T06:57:11.059Z,100977.38
2018-11-20T06:58:48.744Z,100962.61
2018-11-20T07:00:25.976Z,100963.02
2018-11-20T07:02:10.531Z,100979.52
2018-11-20T07:03:47.954Z,100969.37
2018-11-20T07:05:33.482Z,100963.86
2018-11-20T07:07:10.492Z,100979.09
2018-11-20T07:08:56.004Z,100969.33
2018-11-20T07:10:31.854Z,100957.09
2018-11-20T07:12:15.626Z,100964.26
2018-11-20T07:13:53.656Z,100965.58
2018-11-20T07:15:30.961Z,100961.74
2018-11-20T07:17:17.521Z,100963.86
2018-11-20T07:18:54.120Z,100970.64
2018-11-20T07:20:34.203Z,100956.66
2018-11-20T07:22:11.688Z,100969.34
2018-11-20T07:23:49.317Z,100954.10
2018-11-20T07:25:55.940Z,100960.03
2018-11-20T07:27:26.634Z,100958.77
2018-11-20T07:29:04.398Z,100958.30
2018-11-20T07:30:44.119Z,100962.11
2018-11-20T07:32:16.042Z,100954.08
2018-11-20T07:34:00.716Z,100957.02
2018-11-20T07:35:43.797Z,100958.71
2018-11-20T07:37:28.555Z,100948.58
2018-11-20T07:38:56.202Z,100954.11
2018-11-20T07:40:33.516Z,100950.72
2018-11-20T07:42:10.892Z,100958.72
2018-11-20T07:43:55.524Z,100953.23
2018-11-20T07:45:32.545Z,100958.30
2018-11-20T07:47:06.427Z,100959.14
2018-11-20T07:48:43.623Z,100957.47
2018-11-20T07:50:24.898Z,100951.09
2018-11-20T07:52:02.235Z,100948.56
2018-11-20T07:53:46.806Z,100954.89
2018-11-20T07:55:30.068Z,100952.34
2018-11-20T07:57:07.221Z,100942.19
2018-11-20T07:58:44.569Z,100946.00
2018-11-20T08:00:29.200Z,100951.50
2018-11-20T08:01:57.597Z,100951.48
2018-11-20T08:03:41.626Z,100953.14
2018-11-20T08:05:18.361Z,100964.14
2018-11-20T08:07:03.956Z,100942.97
2018-11-20T08:08:41.274Z,100975.13
2018-11-20T08:10:18.443Z,100954.38
2018-11-20T08:11:55.521Z,100957.38
2018-11-20T08:13:38.614Z,100956.95
2018-11-20T08:15:24.003Z,100952.71
2018-11-20T08:16:54.291Z,100948.49
2018-11-20T08:18:39.334Z,100949.31
2018-11-20T08:20:24.135Z,100947.62
2018-11-20T08:22:04.030Z,100952.69
2018-11-20T08:23:49.202Z,100948.06
2018-11-20T08:25:26.718Z,100943.41
2018-11-20T08:27:11.223Z,100947.23
2018-11-20T08:28:48.340Z,100946.82
2018-11-20T08:30:33.055Z,100952.72
2018-11-20T08:32:10.685Z,100949.75
2018-11-20T08:33:48.430Z,100953.12
2018-11-20T08:35:20.414Z,100942.17
2018-11-20T08:36:53.205Z,100954.81
2018-11-20T08:38:37.692Z,100943.00
2018-11-20T08:40:15.320Z,100956.09
2018-11-20T08:41:59.879Z,100949.36
2018-11-20T08:43:40.000Z,100952.24
2018-11-20T08:47:20.928Z,100957.34
2018-11-20T08:48:58.973Z,100965.81
2018-11-20T08:50:43.458Z,100967.52
2018-11-20T08:52:20.450Z,100962.45
2018-11-20T08:54:05.096Z,100962.02
2018-11-20T08:55:42.574Z,100952.72
2018-11-20T08:57:25.720Z,100948.03
2018-11-20T08:59:02.546Z,100968.73
2018-11-20T09:00:45.467Z,100958.16
2018-11-20T09:04:29.664Z,100960.70
2018-11-20T09:06:07.382Z,100969.14
2018-11-20T09:07:52.709Z,100960.70
2018-11-20T09:09:29.716Z,100958.18
2018-11-20T09:11:14.350Z,100961.95
2018-11-20T09:12:51.253Z,100948.86
2018-11-20T09:14:28.585Z,100961.53
2018-11-20T09:16:11.469Z,100950.09
2018-11-20T09:17:47.434Z,100962.81
2018-11-20T09:21:30.471Z,100961.98
2018-11-20T09:22:59.786Z,100954.77
2018-11-20T09:24:37.082Z,100953.91
2018-11-20T09:26:14.324Z,100960.22
2018-11-20T09:27:52.883Z,100950.09
2018-11-20T09:29:38.194Z,100950.92
2018-11-20T09:31:04.828Z,100942.93
2018-11-20T09:36:22.705Z,100958.09
2018-11-20T09:37:55.280Z,100950.50
2018-11-20T09:39:39.801Z,100949.59
2018-11-20T09:41:17.281Z,100962.73
2018-11-20T09:45:03.238Z,100954.31
2018-11-20T09:46:40.571Z,100958.95
2018-11-20T09:48:25.204Z,100956.43
2018-11-20T09:50:03.553Z,100955.61
2018-11-20T09:51:48.108Z,100964.39
2018-11-20T09:53:25.175Z,100952.99
2018-11-20T09:55:10.409Z,100946.72
2018-11-20T09:56:53.949Z,100947.95
2018-11-20T09:58:39.475Z,100951.75
2018-11-20T10:00:22.888Z,100953.03
2018-11-20T10:02:05.781Z,100955.55
2018-11-20T10:03:43.847Z,100942.84
2018-11-20T10:05:13.660Z,100955.53
2018-11-20T10:06:50.969Z,100952.97
2018-11-20T10:08:27.777Z,100947.50
2018-11-20T10:10:12.271Z,100950.86
2018-11-20T10:11:52.301Z,100948.75
2018-11-20T10:13:36.549Z,100945.77
2018-11-20T10:15:13.732Z,100950.84
2018-11-20T10:16:50.611Z,100949.14
2018-11-20T10:18:28.158Z,100968.17
2018-11-20T10:20:05.550Z,100946.63
2018-11-20T10:21:50.115Z,100933.91
2018-11-20T10:23:28.611Z,100953.80
2018-11-20T10:25:13.844Z,100930.98
2018-11-20T10:26:50.989Z,100933.54
2018-11-20T10:28:34.089Z,100920.00
2018-11-20T10:30:16.696Z,100929.72
2018-11-20T10:32:21.479Z,100927.66
2018-11-20T10:33:52.764Z,100922.57
2018-11-20T10:35:29.534Z,100922.11
2018-11-20T10:37:02.246Z,100913.68
2018-11-20T10:38:47.717Z,100909.91
2018-11-20T10:40:25.724Z,100914.92
2018-11-20T10:44:10.660Z,100919.57
2018-11-20T10:45:48.294Z,100914.92
2018-11-20T10:47:25.262Z,100912.85
2018-11-20T10:48:56.520Z,100917.47
2018-11-20T10:50:33.316Z,100923.83
2018-11-20T10:52:18.303Z,100928.87
2018-11-20T10:53:55.662Z,100918.33
2018-11-20T10:55:40.222Z,100903.98
2018-11-20T10:57:16.969Z,100905.22
2018-11-20T10:58:54.347Z,100890.45
2018-11-20T11:00:38.979Z,100900.20
2018-11-20T11:02:16.475Z,100892.17
2018-11-20T11:04:01.624Z,100874.41
2018-11-20T11:06:00.740Z,100870.19
2018-11-20T11:07:37.881Z,100864.67
2018-11-20T11:09:15.628Z,100868.09
2018-11-20T11:10:40.397Z,100863.45
2018-11-20T11:12:17.802Z,100867.23
2018-11-20T11:16:03.388Z,100862.55
2018-11-20T11:17:43.601Z,100851.98
2018-11-20T11:19:21.689Z,100852.88
2018-11-20T11:21:04.302Z,100838.92
2018-11-20T11:24:43.028Z,100852.05
2018-11-20T11:26:20.073Z,100842.73
2018-11-20T11:27:51.158Z,100850.33
2018-11-20T11:29:27.766Z,100847.81
2018-11-20T11:31:14.377Z,100844.41
2018-11-20T11:32:57.573Z,100844.39
2018-11-20T11:34:42.647Z,100849.94
2018-11-20T11:36:23.350Z,100834.72
2018-11-20T11:38:03.865Z,100840.22
2018-11-20T11:39:36.986Z,100827.55
2018-11-20T11:41:13.591Z,100836.45
2018-11-20T11:42:40.457Z,100818.71
2018-11-20T11:44:25.146Z,100834.70
2018-11-20T11:46:02.845Z,100844.04
2018-11-20T11:47:47.530Z,100827.13
2018-11-20T11:49:24.861Z,100825.45
2018-11-20T11:51:10.193Z,100827.59
2018-11-20T11:52:47.816Z,100831.38
2018-11-20T11:54:15.693Z,100821.24
2018-11-20T11:55:53.271Z,100831.78
2018-11-20T11:57:30.267Z,100825.45
2018-11-20T12:03:15.515Z,100792.09
2018-11-20T12:04:52.945Z,100820.41
2018-11-20T12:06:30.460Z,100808.15
2018-11-20T12:08:07.633Z,100807.31
2018-11-20T12:09:36.254Z,100806.87
2018-11-20T12:11:21.060Z,100798.85
2018-11-20T12:12:58.637Z,100806.05
2018-11-20T12:16:43.822Z,100791.31
2018-11-20T12:18:21.289Z,100792.97
2018-11-20T12:19:59.310Z,100786.63
2018-11-20T12:21:44.177Z,100781.17
2018-11-20T12:23:20.918Z,100782.03
2018-11-20T12:25:05.564Z,100770.62
2018-11-20T12:26:42.446Z,100765.95
2018-11-20T12:28:25.399Z,100768.08
2018-11-20T12:30:03.007Z,100774.84
2018-11-20T12:31:39.953Z,100784.57
2018-11-20T12:33:25.916Z,100769.36
2018-11-20T12:35:03.298Z,100771.06
2018-11-20T12:36:48.783Z,100774.83
2018-11-20T12:38:25.820Z,100765.14
2018-11-20T12:40:03.377Z,100754.99
2018-11-20T12:41:41.546Z,100765.56
2018-11-20T12:43:18.621Z,100769.34
2018-11-20T12:45:03.249Z,100782.43
2018-11-20T12:46:35.705Z,100751.59
2018-11-20T12:50:20.559Z,100779.46
2018-11-20T12:51:59.514Z,100760.06
2018-11-20T12:53:38.321Z,100765.09
2018-11-20T12:55:10.586Z,100763.85
2018-11-20T12:56:55.185Z,100766.39
2018-11-20T12:58:35.276Z,100760.06
2018-11-20T13:00:20.251Z,100747.80
2018-11-20T13:01:57.309Z,100744.44
2018-11-20T13:03:35.096Z,100752.05
2018-11-20T13:05:11.842Z,100752.06
2018-11-20T13:06:45.707Z,100752.05
2018-11-20T13:08:49.657Z,100743.59
2018-11-20T13:10:30.573Z,100750.79
2018-11-20T13:12:15.175Z,100746.14
2018-11-20T13:13:53.197Z,100749.09
2018-11-20T13:15:38.124Z,100750.77
2018-11-20T13:17:18.198Z,100750.79
2018-11-20T13:18:54.861Z,100755.86
2018-11-20T13:20:31.902Z,100742.31
2018-11-20T13:22:08.965Z,100749.09
2018-11-20T13:23:55.514Z,100754.58
2018-11-20T13:25:33.085Z,100763.86
2018-11-20T13:27:18.570Z,100755.00
2018-11-20T13:28:58.289Z,100774.84
2018-11-20T13:30:33.626Z,100752.06
2018-11-20T13:32:11.610Z,100765.97
2018-11-20T13:33:45.706Z,100769.80
2018-11-20T13:35:28.321Z,100762.61
2018-11-20T13:37:05.463Z,100756.69
2018-11-20T13:38:52.060Z,100757.12
2018-11-20T13:40:48.496Z,100763.90
2018-11-20T13:42:26.575Z,100754.59
2018-11-20T13:43:57.365Z,100754.16
2018-11-20T13:45:26.106Z,100769.37
2018-11-20T13:47:04.091Z,100755.01
2018-11-20T13:48:39.977Z,100760.53
2018-11-20T13:50:17.058Z,100755.44
2018-11-20T13:52:02.047Z,100750.39
2018-11-20T13:53:39.469Z,100746.57
2018-11-20T13:55:24.835Z,100753.30
2018-11-20T13:57:01.296Z,100760.50
2018-11-20T13:58:41.698Z,100760.93
2018-11-20T14:00:18.637Z,100774.44
2018-11-20T14:02:03.681Z,100760.92
2018-11-20T14:03:29.113Z,100767.28
2018-11-20T14:05:06.344Z,100766.84
2018-11-20T14:06:46.589Z,100761.78
2018-11-20T14:08:29.990Z,100763.91
2018-11-20T14:11:45.884Z,100749.11
2018-11-20T14:13:30.870Z,100755.04
2018-11-20T14:15:08.727Z,100753.74
2018-11-20T14:16:53.335Z,100763.47
2018-11-20T14:18:30.854Z,100749.52
2018-11-20T14:22:14.328Z,100762.20
2018-11-20T14:23:55.833Z,100756.71
2018-11-20T14:25:40.022Z,100752.48
2018-11-20T14:27:14.344Z,100758.41
2018-11-20T14:28:50.594Z,100756.70
2018-11-20T14:30:31.307Z,100736.02
2018-11-20T14:32:16.348Z,100756.28
2018-11-20T14:33:53.527Z,100748.67
2018-11-20T14:35:29.698Z,100739.38
2018-11-20T14:37:07.022Z,100739.41
2018-11-20T14:38:56.475Z,100733.06
2018-11-20T14:40:29.279Z,100738.55
2018-11-20T14:42:14.265Z,100733.91
2018-11-20T14:43:55.265Z,100727.15
2018-11-20T14:45:40.360Z,100728.83
2018-11-20T14:47:17.523Z,100714.47
2018-11-20T14:49:01.731Z,100717.85
2018-11-20T14:50:38.788Z,100720.39
2018-11-20T14:52:23.284Z,100718.29
2018-11-20T14:54:04.970Z,100709.83
2018-11-20T14:55:50.400Z,100713.21
2018-11-20T14:57:33.456Z,100717.45
2018-11-20T14:59:18.345Z,100711.94
2018-11-20T15:00:56.161Z,100711.93
2018-11-20T15:04:48.687Z,100706.44
2018-11-20T15:06:25.585Z,100713.61
2018-11-20T15:08:02.385Z,100712.36
2018-11-20T15:09:40.610Z,100705.63
2018-11-20T15:11:20.582Z,100704.74
2018-11-20T15:13:00.461Z,100706.86
2018-11-20T15:14:32.692Z,100702.63
2018-11-20T15:15:55.671Z,100711.48
2018-11-20T15:17:27.939Z,100712.34
2018-11-20T15:19:02.838Z,100710.64
2018-11-20T15:20:21.581Z,100707.27
2018-11-20T15:21:55.236Z,100708.97
2018-11-20T15:23:20.027Z,100703.46
2018-11-20T15:24:39.620Z,100702.20
2018-11-20T15:26:04.059Z,100700.50
2018-11-20T15:27:30.354Z,100707.66
2018-11-20T15:28:45.273Z,100698.37
2018-11-20T15:30:15.726Z,100700.91
2018-11-20T15:31:41.942Z,100697.92
2018-11-20T15:33:23.134Z,100700.45
2018-11-20T15:34:57.842Z,100703.38
2018-11-20T15:36:26.713Z,100716.00
2018-11-20T15:37:52.181Z,100702.05
2018-11-20T15:39:18.559Z,100699.95
2018-11-20T15:40:47.042Z,100704.95
2018-11-20T15:42:11.065Z,100702.38
2018-11-20T15:43:36.665Z,100696.49
2018-11-20T15:45:02.089Z,100694.37
2018-11-20T15:46:39.911Z,100703.61
2018-11-20T15:48:06.439Z,100702.75
2018-11-20T15:49:35.210Z,100701.02
2018-11-20T15:50:58.566Z,100700.59
2018-11-20T15:52:22.977Z,100705.63
2018-11-20T15:54:01.416Z,100711.94
2018-11-20T15:55:40.193Z,100697.20
2018-11-20T15:57:09.009Z,100695.91
2018-11-20T15:58:35.004Z,100706.03
2018-11-20T16:00:16.099Z,100715.72
2018-11-20T16:01:42.690Z,100709.77
2018-11-20T16:03:14.829Z,100710.63
2018-11-20T16:04:44.247Z,100714.02
2018-11-20T16:06:04.137Z,100709.77
2018-11-20T16:07:42.807Z,100707.67
2018-11-20T16:09:08.593Z,100705.54
2018-11-20T16:10:52.867Z,100711.45
2018-11-20T16:12:17.404Z,100710.19
2018-11-20T16:13:37.591Z,100714.82
2018-11-20T16:15:16.268Z,100713.11
2018-11-20T16:16:28.815Z,100711.42
2018-11-20T16:17:56.486Z,100713.51
2018-11-20T16:19:18.990Z,100718.53
2018-11-20T16:20:56.493Z,100709.28
2018-11-20T16:22:35.643Z,100716.45
2018-11-20T16:24:02.006Z,100714.76
2018-11-20T16:25:45.694Z,100718.97
2018-11-20T16:27:14.444Z,100714.77
2018-11-20T16:28:40.531Z,100726.50
2018-11-20T16:30:09.317Z,100707.94
2018-11-20T16:31:44.440Z,100725.66
2018-11-20T16:33:13.307Z,100716.33
2018-11-20T16:34:54.831Z,100717.61
2018-11-20T16:36:21.882Z,100714.21
2018-11-20T16:38:05.690Z,100715.08
2018-11-20T16:39:32.556Z,100714.61
2018-11-20T16:41:10.741Z,100718.81
2018-11-20T16:42:34.999Z,100720.92
2018-11-20T16:44:01.345Z,100711.22
2018-11-20T16:45:38.765Z,100716.67
2018-11-20T16:47:04.807Z,100709.47
2018-11-20T16:48:22.780Z,100718.31
2018-11-20T16:49:54.685Z,100706.08
2018-11-20T16:51:32.269Z,100716.17
2018-11-20T16:53:17.933Z,100720.38
2018-11-20T16:54:47.396Z,100710.66
2018-11-20T16:56:28.310Z,100715.29
2018-11-20T16:57:54.165Z,100719.47
2018-11-20T16:59:32.690Z,100719.00
2018-11-20T17:00:57.182Z,100719.43
2018-11-20T17:02:31.929Z,100710.59
2018-11-20T17:04:00.902Z,100711.42
2018-11-20T17:05:26.287Z,100713.11
2018-11-20T17:06:49.899Z,100720.67
2018-11-20T17:08:14.786Z,100721.53
2018-11-20T17:09:42.293Z,100714.80
2018-11-20T17:11:02.776Z,100713.55
2018-11-20T17:12:28.781Z,100719.82
2018-11-20T17:13:55.165Z,100719.41
2018-11-20T17:15:25.073Z,100720.25
2018-11-20T17:16:57.127Z,100721.52
2018-11-20T17:18:23.843Z,100709.79
2018-11-20T17:19:38.935Z,100715.70
2018-11-20T17:21:11.047Z,100726.17
2018-11-20T17:22:45.224Z,100719.02
2018-11-20T17:24:09.626Z,100718.14
2018-11-20T17:25:54.116Z,100720.67
2018-11-20T17:27:31.587Z,100716.48
2018-11-20T17:28:56.472Z,100711.44
2018-11-20T17:30:25.535Z,100713.50
2018-11-20T17:31:53.756Z,100712.70
2018-11-20T17:33:20.585Z,100714.40
2018-11-20T17:34:58.744Z,100724.50
2018-11-20T17:36:22.746Z,100714.41
2018-11-20T17:37:52.500Z,100728.76
2018-11-20T17:39:17.002Z,100714.00
2018-11-20T17:40:51.375Z,100714.06
2018-11-20T17:42:17.916Z,100715.70
2018-11-20T17:43:43.399Z,100722.06
2018-11-20T17:45:09.903Z,100719.11
2018-11-20T17:46:35.729Z,100727.52
2018-11-20T17:47:59.165Z,100725.39
2018-11-20T17:49:22.817Z,100723.67
2018-11-20T17:51:06.479Z,100723.28
2018-11-20T17:52:50.229Z,100714.41
2018-11-20T17:54:28.884Z,100726.21
2018-11-20T17:56:13.635Z,100726.19
2018-11-20T17:57:45.339Z,100728.27
2018-11-20T17:59:23.568Z,100724.87
2018-11-20T18:00:49.588Z,100729.92
2018-11-20T18:02:32.144Z,100732.02
2018-11-20T18:04:03.609Z,100732.06
2018-11-20T18:05:27.991Z,100732.83
2018-11-20T18:07:02.210Z,100721.08
2018-11-20T18:08:24.370Z,100724.48
2018-11-20T18:09:49.056Z,100724.05
2018-11-20T18:11:14.836Z,100725.70
2018-11-20T18:12:40.443Z,100729.05
2018-11-20T18:14:08.878Z,100732.43
2018-11-20T18:15:34.827Z,100724.47
2018-11-20T18:16:59.396Z,100728.64
2018-11-20T18:18:23.842Z,100734.52
2018-11-20T18:19:52.387Z,100729.91
2018-11-20T18:21:24.196Z,100728.20
2018-11-20T18:22:53.621Z,100727.34
2018-11-20T18:24:23.616Z,100733.22
2018-11-20T18:25:50.928Z,100725.16
2018-11-20T18:27:19.072Z,100730.97
2018-11-20T18:28:34.253Z,100721.70
2018-11-20T18:30:12.601Z,100725.07
2018-11-20T18:31:53.580Z,100723.41
2018-11-20T18:33:18.152Z,100718.78
2018-11-20T18:34:48.308Z,100719.58
2018-11-20T18:36:23.164Z,100715.34
2018-11-20T18:38:06.196Z,100715.34
2018-11-20T18:39:31.234Z,100722.51
2018-11-20T18:41:06.675Z,100713.70
2018-11-20T18:42:31.599Z,100714.08
2018-11-20T18:43:56.147Z,100715.77
2018-11-20T18:45:21.441Z,100722.94
2018-11-20T18:46:53.033Z,100715.43
2018-11-20T18:48:26.416Z,100726.42
2018-11-20T18:49:59.096Z,100729.77
2018-11-20T18:51:22.224Z,100724.75
2018-11-20T18:52:53.281Z,100724.33
2018-11-20T18:54:30.271Z,100730.23
2018-11-20T18:55:49.908Z,100721.02
2018-11-20T18:57:16.371Z,100720.15
2018-11-20T18:58:42.668Z,100718.46
2018-11-20T19:00:07.480Z,100712.13
2018-11-20T19:01:35.988Z,100714.70
2018-11-20T19:03:00.057Z,100715.13
2018-11-20T19:04:25.910Z,100711.33
2018-11-20T19:05:50.250Z,100719.82
2018-11-20T19:07:15.555Z,100711.83
2018-11-20T19:08:41.791Z,100710.10
2018-11-20T19:10:16.653Z,100716.40
2018-11-20T19:11:56.577Z,100720.23
2018-11-20T19:13:36.669Z,100710.14
2018-11-20T19:15:03.334Z,100708.45
2018-11-20T19:16:32.369Z,100708.86
2018-11-20T19:17:58.829Z,100716.48
2018-11-20T19:19:38.772Z,100706.80
2018-11-20T19:21:05.535Z,100714.83
2018-11-20T19:22:30.586Z,100717.37
2018-11-20T19:23:59.149Z,100716.13
2018-11-20T19:25:23.427Z,100725.41
2018-11-20T19:27:07.908Z,100725.00
2018-11-20T19:29:31.613Z,100725.08